Time;durP1;ratioP1;P1;durP2;ratioP2;P2;SDS_P1;SDS_P2;PMS_P1;PMS_P2;Temp;Humidity;BMP_temperature;BMP_pressure;BME280_temperature;BME280_humidity;BME280_pressure;Samples;Min_cycle;Max_cycle;Signal;HPM_P1;HPM_P2
2022/03/03 00:00:56;;;;;;;8.52;2.88;;;;;;;18.71;45.11;100775.09;4939013;29;20035;-81
2022/03/03 00:03:22;;;;;;;9.25;2.88;;;;;;;18.66;45.36;100769.84;4956433;29;20106;-80
2022/03/03 00:05:47;;;;;;;8.52;3.10;;;;;;;18.68;45.36;100773.06;4956367;29;20035;-81
2022/03/03 00:08:13;;;;;;;11.68;2.78;;;;;;;18.77;45.12;100773.63;4956307;29;20055;-82
2022/03/03 00:10:38;;;;;;;10.77;2.60;;;;;;;18.82;45.11;100762.25;4956290;29;20466;-81
2022/03/03 00:13:04;;;;;;;17.17;3.00;;;;;;;18.75;45.22;100772.41;4956260;29;20051;-83
2022/03/03 00:15:34;;;;;;;10.95;2.80;;;;;;;18.78;45.10;100777.19;4938818;29;20031;-80
2022/03/03 00:17:59;;;;;;;;;;;;;;;18.73;45.22;100764.44;4956906;29;20027;-81
2022/03/03 00:20:25;;;;;;;7.50;2.60;;;;;;;18.69;45.53;100769.13;4955310;28;19968;-80
2022/03/03 00:22:51;;;;;;;6.03;2.50;;;;;;;18.48;45.81;100758.41;4956030;29;20027;-81
2022/03/03 00:25:17;;;;;;;7.10;2.05;;;;;;;18.68;45.46;100767.53;4956135;29;20509;-82
2022/03/03 00:27:43;;;;;;;13.30;2.28;;;;;;;18.79;45.05;100762.97;4955989;29;20417;-80
2022/03/03 00:30:09;;;;;;;10.90;3.35;;;;;;;18.92;44.80;100758.06;4938668;29;20035;-80
2022/03/03 00:32:40;;;;;;;7.65;3.00;;;;;;;18.88;45.04;100756.41;4955848;29;20039;-80
2022/03/03 00:35:10;;;;;;;13.60;2.88;;;;;;;18.81;45.30;100746.78;4955798;29;20039;-81
2022/03/03 00:37:36;;;;;;;11.93;2.15;;;;;;;18.85;45.33;100758.75;4941791;29;20047;-81
2022/03/03 00:40:04;;;;;;;10.80;3.28;;;;;;;18.90;45.03;100754.09;4955712;28;20377;-81
2022/03/03 00:42:30;;;;;;;7.45;3.00;;;;;;;18.92;45.04;100754.50;4955590;28;20102;-81
2022/03/03 00:44:56;;;;;;;7.40;2.67;;;;;;;18.96;44.84;100749.81;4955445;28;20028;-81
2022/03/03 00:47:21;;;;;;;7.35;2.22;;;;;;;18.84;45.14;100756.34;4955643;28;20038;-81
2022/03/03 00:49:47;;;;;;;8.27;2.55;;;;;;;18.85;45.29;100764.28;4955525;28;20122;-81
2022/03/03 00:52:12;;;;;;;7.75;2.15;;;;;;;18.68;45.68;100770.31;4955333;28;20034;-80
2022/03/03 00:54:38;;;;;;;8.57;2.28;;;;;;;18.69;45.55;100763.59;4955438;28;20035;-81
2022/03/03 00:57:04;;;;;;;6.22;2.45;;;;;;;18.78;45.39;100755.84;4955364;28;20086;-80
2022/03/03 00:59:29;;;;;;;9.82;2.80;;;;;;;18.99;44.86;100762.94;4955341;28;20027;-81
2022/03/03 01:01:55;;;;;;;4.68;2.67;;;;;;;18.97;44.61;100762.50;4955330;28;20028;-80
2022/03/03 01:04:22;;;;;;;8.02;3.45;;;;;;;18.87;44.82;100763.09;4955311;28;20023;-81
2022/03/03 01:06:47;;;;;;;9.00;3.00;;;;;;;18.87;44.73;100774.19;4955192;28;20490;-82
2022/03/03 01:09:13;;;;;;;4.88;2.38;;;;;;;18.79;45.09;100773.25;4955190;28;20038;-80
2022/03/03 01:11:38;;;;;;;7.90;2.50;;;;;;;18.88;44.84;100773.00;4953981;28;20027;-83
2022/03/03 01:14:04;;;;;;;6.40;2.15;;;;;;;18.81;44.85;100765.38;4955084;28;20027;-81
2022/03/03 01:16:29;;;;;;;3.70;1.63;;;;;;;18.85;44.88;100755.19;4953827;28;20442;-81
2022/03/03 01:18:55;;;;;;;3.22;1.52;;;;;;;18.83;45.20;100763.06;4955090;28;20501;-81
2022/03/03 01:21:21;;;;;;;3.10;1.33;;;;;;;18.84;44.65;100771.00;4955020;28;20031;-80
2022/03/03 01:23:46;;;;;;;4.15;1.70;;;;;;;18.88;44.92;100764.72;4954900;28;20035;-80
2022/03/03 01:26:12;;;;;;;3.38;1.17;;;;;;;18.87;44.56;100772.22;4954684;28;20036;-81
2022/03/03 01:28:37;;;;;;;2.95;1.00;;;;;;;18.90;44.61;100770.69;4954847;28;20060;-81
2022/03/03 01:31:03;;;;;;;3.95;1.00;;;;;;;18.90;44.59;100765.16;4954572;28;20042;-83
2022/03/03 01:33:29;;;;;;;2.63;1.00;;;;;;;18.95;44.50;100762.06;4954631;28;20042;-80
2022/03/03 01:35:54;;;;;;;3.15;0.85;;;;;;;18.95;44.48;100756.53;4954863;28;20478;-80
2022/03/03 01:38:20;;;;;;;3.60;1.67;;;;;;;18.95;44.48;100759.28;4954585;28;20043;-81
2022/03/03 01:40:46;;;;;;;4.18;1.45;;;;;;;18.92;44.72;100758.06;4954387;29;20031;-81
2022/03/03 01:43:11;;;;;;;4.22;0.90;;;;;;;18.95;44.25;100768.41;4954634;29;20043;-81
2022/03/03 01:45:37;;;;;;;4.90;1.27;;;;;;;18.87;44.77;100772.22;4954623;29;20035;-81
2022/03/03 01:48:03;;;;;;;4.50;0.90;;;;;;;18.97;44.47;100774.38;4954410;29;20027;-80
2022/03/03 01:50:29;;;;;;;5.10;1.40;;;;;;;18.99;44.36;100780.34;4954578;29;20098;-80
2022/03/03 01:52:54;;;;;;;6.65;1.48;;;;;;;18.99;44.48;100782.31;4937301;29;20090;-81
2022/03/03 01:55:20;;;;;;;4.22;1.63;;;;;;;19.11;44.23;100782.91;4954397;29;20039;-81
2022/03/03 01:57:49;;;;;;;7.30;1.60;;;;;;;19.11;44.06;100785.69;4937290;29;20042;-81
2022/03/03 02:00:16;;;;;;;3.85;1.75;;;;;;;19.11;44.02;100790.44;4954551;29;20516;-81
2022/03/03 02:02:41;;;;;;;3.47;1.27;;;;;;;19.15;43.92;100791.31;4954488;29;20398;-80
2022/03/03 02:05:07;;;;;;;2.75;1.05;;;;;;;19.15;43.86;100788.53;4954353;29;20027;-80
2022/03/03 02:07:34;;;;;;;2.25;1.40;;;;;;;19.11;43.91;100794.00;4954416;29;20160;-80
2022/03/03 02:10:02;;;;;;;4.93;1.50;;;;;;;19.08;43.97;100793.94;4954320;29;20429;-80
2022/03/03 02:12:28;;;;;;;5.82;1.85;;;;;;;19.07;43.80;100801.47;4954342;29;20028;-82
2022/03/03 02:14:54;;;;;;;6.03;2.10;;;;;;;19.08;43.74;100808.59;4937050;29;20035;-80
2022/03/03 02:17:19;;;;;;;7.00;1.90;;;;;;;19.05;43.68;100814.88;4937135;29;20095;-80
2022/03/03 02:19:45;;;;;;;5.90;2.03;;;;;;;19.00;43.78;100804.09;4936980;29;20035;-83
2022/03/03 02:22:11;;;;;;;5.00;1.92;;;;;;;18.87;43.92;100804.63;4954118;29;20028;-83
2022/03/03 02:24:38;;;;;;;8.60;2.33;;;;;;;18.92;43.80;100799.59;4954221;29;20023;-82
2022/03/03 02:27:04;;;;;;;6.38;2.30;;;;;;;18.89;43.75;100800.31;4954225;29;20118;-80
2022/03/03 02:29:31;;;;;;;3.17;1.80;;;;;;;18.89;43.71;100791.22;4954172;29;20087;-81
2022/03/03 02:31:57;;;;;;;7.57;1.65;;;;;;;18.77;43.59;100787.47;4954185;29;20549;-81
2022/03/03 02:34:23;;;;;;;6.65;1.88;;;;;;;18.79;43.51;100796.19;4936903;29;20524;-80
2022/03/03 02:36:49;;;;;;;8.32;2.22;;;;;;;18.78;43.24;100800.13;4955262;28;20027;-81
2022/03/03 02:39:15;;;;;;;9.18;2.22;;;;;;;18.71;43.37;100797.22;4954097;29;20111;-81
2022/03/03 02:41:40;;;;;;;10.07;2.58;;;;;;;18.60;43.19;100798.97;4954131;29;20031;-81
2022/03/03 02:44:06;;;;;;;5.15;1.80;;;;;;;18.39;43.35;100802.13;4956573;28;20090;-80
2022/03/03 02:46:31;;;;;;;6.78;2.30;;;;;;;18.32;43.36;100801.97;4957750;29;20039;-80
2022/03/03 02:48:57;;;;;;;7.65;2.28;;;;;;;18.29;43.02;100803.50;4957800;29;20086;-80
2022/03/03 02:51:23;;;;;;;6.63;1.88;;;;;;;18.24;42.98;100814.06;4957545;29;20064;-81
2022/03/03 02:53:49;;;;;;;11.35;3.30;;;;;;;18.21;42.94;100810.06;4957600;29;20042;-80
2022/03/03 02:56:15;;;;;;;10.38;2.38;;;;;;;18.11;42.92;100824.44;4940378;29;20043;-80
2022/03/03 02:58:41;;;;;;;5.53;2.03;;;;;;;17.92;43.39;100813.34;4957566;29;20394;-81
2022/03/03 03:01:08;;;;;;;6.88;2.33;;;;;;;18.06;43.03;100816.44;4957526;29;20035;-80
2022/03/03 03:03:34;;;;;;;7.32;2.60;;;;;;;18.14;42.96;100820.16;4957436;29;20027;-81
2022/03/03 03:05:59;;;;;;;9.30;2.80;;;;;;;18.17;42.89;100820.22;4957422;29;20470;-82
2022/03/03 03:08:25;;;;;;;19.15;3.13;;;;;;;18.10;42.80;100814.53;4957469;29;20474;-82
2022/03/03 03:10:50;;;;;;;13.05;2.53;;;;;;;17.89;42.94;100822.34;4957309;29;20027;-81
2022/03/03 03:13:16;;;;;;;9.40;2.20;;;;;;;17.81;42.92;100820.59;4957209;29;20031;-80
2022/03/03 03:15:43;;;;;;;12.13;3.65;;;;;;;17.80;42.73;100835.56;4940013;29;20024;-81
2022/03/03 03:18:17;;;;;;;10.73;2.58;;;;;;;17.77;42.74;100839.06;4940027;29;20090;-81
2022/03/03 03:20:46;;;;;;;11.70;2.30;;;;;;;17.82;42.55;100836.81;4957176;29;20027;-81
2022/03/03 03:23:14;;;;;;;9.43;2.65;;;;;;;17.93;42.42;100839.84;4939897;29;20471;-80
2022/03/03 03:25:43;;;;;;;11.23;2.22;;;;;;;17.94;42.56;100839.47;4957044;29;20032;-83
2022/03/03 03:28:10;;;;;;;11.15;2.25;;;;;;;17.94;42.40;100845.00;4957105;29;20423;-82
2022/03/03 03:30:36;;;;;;;12.82;2.53;;;;;;;18.02;42.16;100834.91;4956985;29;20031;-81
2022/03/03 03:33:02;;;;;;;8.38;2.25;;;;;;;17.92;42.43;100841.00;4956928;29;20106;-82
2022/03/03 03:35:28;;;;;;;13.27;2.40;;;;;;;17.85;42.73;100851.91;4956561;29;20035;-80
2022/03/03 03:37:53;;;;;;;10.07;2.97;;;;;;;17.69;42.82;100851.88;4945349;29;20047;-80
2022/03/03 03:40:19;;;;;;;16.55;3.05;;;;;;;17.71;42.59;100855.91;4956645;28;20486;-80
2022/03/03 03:42:45;;;;;;;6.30;2.45;;;;;;;17.62;42.31;100862.75;4956772;28;20090;-81
2022/03/03 03:45:12;;;;;;;11.60;2.85;;;;;;;17.57;42.57;100863.03;4956765;28;20122;-81
2022/03/03 03:47:38;;;;;;;13.73;2.58;;;;;;;17.55;42.65;100860.63;4956762;28;20098;-81
2022/03/03 03:50:07;;;;;;;21.30;3.70;;;;;;;17.54;42.42;100867.31;4956644;28;20394;-80
2022/03/03 03:52:32;;;;;;;9.20;2.80;;;;;;;17.29;42.98;100857.56;4956644;28;20495;-80
2022/03/03 03:54:58;;;;;;;11.93;2.22;;;;;;;17.19;42.99;100848.66;4955338;28;20039;-80
2022/03/03 03:57:25;;;;;;;13.88;2.90;;;;;;;17.30;42.44;100837.88;4956559;28;20039;-80
2022/03/03 03:59:51;;;;;;;14.88;2.88;;;;;;;17.27;42.80;100843.34;4956500;28;20027;-80
2022/03/03 04:02:16;;;;;;;10.32;2.55;;;;;;;17.17;42.93;100839.94;4956464;28;20086;-81
2022/03/03 04:04:42;;;;;;;10.30;2.80;;;;;;;17.10;43.02;100847.25;4955146;29;20473;-80
2022/03/03 04:07:08;;;;;;;15.70;2.47;;;;;;;17.12;42.87;100851.25;4956443;28;20027;-80
2022/03/03 04:09:33;;;;;;;10.63;2.63;;;;;;;17.09;42.77;100853.94;4956391;28;20493;-81
2022/03/03 04:12:02;;;;;;;13.82;3.08;;;;;;;17.15;42.67;100864.34;4956507;29;20102;-80
2022/03/03 04:14:27;;;;;;;10.68;3.42;;;;;;;17.14;42.68;100867.44;4956127;28;20031;-82
2022/03/03 04:16:53;;;;;;;10.32;3.10;;;;;;;17.20;42.38;100871.56;4956152;28;20043;-80
2022/03/03 04:19:19;;;;;;;13.65;3.08;;;;;;;17.26;42.58;100872.09;4954707;28;20027;-80
2022/03/03 04:21:44;;;;;;;23.67;3.58;;;;;;;17.27;42.45;100873.72;4956072;28;20031;-82
2022/03/03 04:24:11;;;;;;;10.80;3.78;;;;;;;17.33;42.28;100875.06;4956110;29;20055;-80
2022/03/03 04:26:36;;;;;;;15.55;2.10;;;;;;;17.32;42.45;100873.47;4956040;28;20382;-81
2022/03/03 04:29:03;;;;;;;16.98;4.68;;;;;;;17.32;42.31;100882.53;4955977;28;20038;-81
2022/03/03 04:31:29;;;;;;;7.10;2.10;;;;;;;17.26;42.07;100886.72;4955993;28;20573;-80
2022/03/03 04:33:56;;;;;;;15.60;2.97;;;;;;;17.18;42.38;100882.16;4955853;28;20035;-81
2022/03/03 04:36:22;;;;;;;13.18;3.08;;;;;;;17.05;42.67;100891.66;4954432;29;20463;-81
2022/03/03 04:38:50;;;;;;;14.93;3.08;;;;;;;17.11;42.50;100891.06;4955618;28;20071;-81
2022/03/03 04:41:16;;;;;;;14.65;2.70;;;;;;;17.14;42.41;100889.53;4938454;29;20498;-81
2022/03/03 04:43:42;;;;;;;19.70;3.38;;;;;;;17.14;42.45;100884.81;4955737;29;20031;-80
2022/03/03 04:46:08;;;;;;;11.65;2.65;;;;;;;16.96;42.64;100891.81;4955575;29;20470;-80
2022/03/03 04:48:34;;;;;;;13.18;3.15;;;;;;;16.87;42.52;100896.69;4938286;29;20039;-82
2022/03/03 04:51:00;;;;;;;12.45;2.78;;;;;;;16.86;42.27;100900.63;4955524;29;20371;-81
2022/03/03 04:53:27;;;;;;;12.15;2.67;;;;;;;16.80;42.30;100904.78;4955402;29;20028;-80
2022/03/03 04:55:53;;;;;;;14.45;2.88;;;;;;;16.82;42.21;100917.06;4955463;29;20459;-80
2022/03/03 04:58:19;;;;;;;17.33;3.45;;;;;;;16.87;42.01;100916.81;4955510;29;20046;-81
2022/03/03 05:00:45;;;;;;;10.68;2.65;;;;;;;16.90;42.27;100913.34;4955132;29;20031;-80
2022/03/03 05:03:10;;;;;;;14.57;3.92;;;;;;;16.96;41.64;100916.66;4955336;29;20031;-80
2022/03/03 05:05:36;;;;;;;7.88;2.25;;;;;;;16.89;41.97;100927.50;4954994;28;20043;-82
2022/03/03 05:08:02;;;;;;;9.10;3.22;;;;;;;16.97;41.58;100923.78;4955178;29;20035;-80
2022/03/03 05:10:27;;;;;;;12.70;3.00;;;;;;;17.04;41.33;100929.50;4955205;29;20034;-80
2022/03/03 05:12:53;;;;;;;13.52;3.22;;;;;;;16.89;41.78;100935.78;4955124;29;20501;-80
2022/03/03 05:15:19;;;;;;;11.40;2.47;;;;;;;16.95;41.68;100942.66;4954947;29;20497;-81
2022/03/03 05:17:45;;;;;;;12.13;2.85;;;;;;;17.01;41.35;100946.78;4955139;29;20031;-79
2022/03/03 05:20:12;;;;;;;13.35;3.10;;;;;;;16.82;41.89;100949.38;4955042;29;20042;-80
2022/03/03 05:22:39;;;;;;;16.45;3.63;;;;;;;16.71;41.81;100951.84;4954992;29;20027;-81
2022/03/03 05:25:05;;;;;;;26.02;3.50;;;;;;;16.75;41.91;100960.19;4954970;29;20463;-83
2022/03/03 05:27:33;;;;;;;16.15;3.60;;;;;;;16.73;41.98;100968.03;4954820;29;20044;-81
2022/03/03 05:29:59;;;;;;;18.52;3.88;;;;;;;16.78;41.84;100978.84;4954794;29;20110;-80
2022/03/03 05:32:24;;;;;;;19.15;2.95;;;;;;;16.79;42.04;100989.53;4954797;29;20114;-82
2022/03/03 05:34:50;;;;;;;21.50;3.53;;;;;;;16.79;41.90;100991.47;4937491;29;20117;-82
2022/03/03 05:37:22;;;;;;;10.77;2.85;;;;;;;16.84;41.38;100988.44;4954555;29;20482;-81
2022/03/03 05:39:48;;;;;;;11.55;2.90;;;;;;;16.85;41.74;100987.28;4954826;29;20482;-80
2022/03/03 05:42:13;;;;;;;18.90;3.78;;;;;;;16.83;41.66;100986.84;4937499;29;20035;-80
2022/03/03 05:44:39;;;;;;;13.63;3.30;;;;;;;16.83;41.54;100990.41;4954548;29;20032;-79
2022/03/03 05:47:06;;;;;;;10.77;3.17;;;;;;;16.73;41.54;100988.16;4954685;29;20102;-81
2022/03/03 05:49:33;;;;;;;21.75;4.50;;;;;;;16.73;41.54;101004.69;4954704;29;20482;-80
2022/03/03 05:51:58;;;;;;;12.52;2.80;;;;;;;16.72;41.67;101002.31;4954631;29;20027;-79
2022/03/03 05:54:24;;;;;;;20.25;3.03;;;;;;;16.80;41.08;101006.88;4954522;29;20403;-81
2022/03/03 05:56:53;;;;;;;14.20;3.33;;;;;;;16.65;41.09;101009.16;4954544;29;20027;-81
2022/03/03 05:59:22;;;;;;;16.45;3.35;;;;;;;16.73;41.11;101010.22;4954477;29;20085;-80
2022/03/03 06:01:49;;;;;;;11.70;3.38;;;;;;;16.52;41.59;101006.78;4954600;29;20086;-80
2022/03/03 06:04:16;;;;;;;13.57;3.20;;;;;;;16.44;41.67;101018.72;4954456;29;20039;-80
2022/03/03 06:06:54;;;;;;;9.48;3.10;;;;;;;16.36;41.75;101001.16;4954528;29;20023;-80
2022/03/03 06:09:24;;;;;;;8.57;3.30;;;;;;;16.31;41.84;101013.22;4954401;29;20030;-82
2022/03/03 06:12:03;;;;;;;12.73;4.22;;;;;;;16.29;41.75;101014.72;4954380;29;20102;-81
2022/03/03 06:14:41;;;;;;;15.55;2.75;;;;;;;16.16;41.76;101016.66;4937195;29;20039;-79
2022/03/03 06:17:08;;;;;;;15.02;3.65;;;;;;;16.05;41.86;101026.53;4954441;28;20031;-80
2022/03/03 06:19:41;;;;;;;14.98;4.15;;;;;;;16.00;41.85;101030.31;4958059;29;20033;-81
2022/03/03 06:22:08;;;;;;;14.90;3.05;;;;;;;16.00;41.57;101021.22;4941163;29;20031;-80
2022/03/03 06:24:35;;;;;;;20.17;3.42;;;;;;;15.93;41.83;101035.56;4958251;29;20429;-79
2022/03/03 06:27:01;;;;;;;14.57;2.90;;;;;;;15.92;41.92;101038.69;4957997;29;20055;-80
2022/03/03 06:29:27;;;;;;;13.43;4.00;;;;;;;15.99;41.68;101050.75;4958124;29;20031;-80
2022/03/03 06:31:53;;;;;;;24.55;4.43;;;;;;;15.94;41.75;101050.97;4940874;29;20023;-80
2022/03/03 06:34:20;;;;;;;12.80;4.15;;;;;;;15.65;42.03;101051.94;4958026;29;20114;-82
2022/03/03 06:36:46;;;;;;;9.90;3.47;;;;;;;15.63;42.35;101058.91;4957902;29;20055;-80
2022/03/03 06:39:12;;;;;;;17.42;3.30;;;;;;;15.65;42.11;101067.66;4958035;29;20038;-82
2022/03/03 06:41:38;;;;;;;13.50;3.05;;;;;;;15.67;41.97;101065.38;4957904;29;20099;-81
2022/03/03 06:44:04;;;;;;;13.43;2.85;;;;;;;15.74;41.82;101077.44;4940649;29;20470;-79
2022/03/03 06:46:29;;;;;;;13.25;3.38;;;;;;;15.57;41.99;101077.59;4940768;29;20028;-80
2022/03/03 06:48:55;;;;;;;22.80;3.95;;;;;;;15.69;41.64;101082.34;4957687;29;20020;-80
2022/03/03 06:51:22;;;;;;;21.25;4.78;;;;;;;15.55;41.73;101094.44;4956576;28;20055;-83
2022/03/03 06:53:57;;;;;;;14.63;3.10;;;;;;;15.63;41.47;101097.47;4938192;29;20127;-80
2022/03/03 06:56:25;;;;;;;10.18;2.97;;;;;;;15.66;41.42;101108.66;4957091;29;20078;-88
2022/03/03 06:58:53;;;;;;;18.48;3.15;;;;;;;15.60;41.47;101109.97;4957321;29;20012;-81
2022/03/03 07:01:22;;;;;;;7.63;3.22;;;;;;;15.56;41.47;101109.00;4955640;28;20062;-80
2022/03/03 07:03:48;;;;;;;10.80;3.42;;;;;;;15.45;41.90;101118.84;4941592;28;20030;-80
2022/03/03 07:06:15;;;;;;;10.88;3.22;;;;;;;15.34;41.76;101123.13;4924384;28;20027;-81
2022/03/03 07:08:42;;;;;;;11.68;3.80;;;;;;;15.23;42.15;101139.25;4940093;28;20680;-80
2022/03/03 07:11:08;;;;;;;18.65;3.35;;;;;;;15.11;42.03;101139.16;4940428;28;20058;-82
2022/03/03 07:13:33;;;;;;;11.60;3.55;;;;;;;14.95;42.52;101138.94;4953059;28;20457;-80
2022/03/03 07:16:17;;;;;;;27.15;5.28;;;;;;;14.92;42.35;101134.09;4956444;29;20102;-82
2022/03/03 07:18:48;;;;;;;15.80;3.00;;;;;;;14.94;42.32;101143.63;4954821;29;20031;-82
2022/03/03 07:21:31;;;;;;;19.17;4.57;;;;;;;14.86;42.18;101141.72;4956830;29;20033;-82
2022/03/03 07:24:12;;;;;;;16.58;3.53;;;;;;;14.83;42.39;101147.09;4938617;29;20031;-82
2022/03/03 07:26:38;;;;;;;15.07;3.72;;;;;;;14.84;42.44;101151.47;4956486;29;20115;-80
2022/03/03 07:29:06;;;;;;;14.48;2.80;;;;;;;14.79;42.20;101155.19;4956826;28;20470;-80
2022/03/03 07:31:45;;;;;;;24.48;3.97;;;;;;;14.74;42.47;101154.59;4956982;29;20034;-80
2022/03/03 07:34:13;;;;;;;17.05;3.75;;;;;;;14.74;42.37;101160.91;4941559;28;20038;-80
2022/03/03 07:36:40;;;;;;;19.80;3.58;;;;;;;14.77;42.44;101164.94;4924014;28;20110;-80
2022/03/03 07:39:09;;;;;;;11.32;2.72;;;;;;;14.81;42.40;101169.44;4940513;28;20039;-80
2022/03/03 07:41:35;;;;;;;11.65;3.60;;;;;;;14.68;42.54;101175.97;4940423;28;20015;-80
2022/03/03 07:44:01;;;;;;;14.60;4.30;;;;;;;14.77;42.42;101170.44;4941349;28;20584;-80
2022/03/03 07:46:27;;;;;;;15.07;4.40;;;;;;;14.74;42.60;101171.91;4941594;28;20077;-80
2022/03/03 07:48:53;;;;;;;18.50;3.80;;;;;;;14.75;42.65;101173.53;4941473;28;20032;-81
2022/03/03 07:51:20;;;;;;;20.27;3.88;;;;;;;14.69;42.77;101174.84;4941489;28;20034;-81
2022/03/03 07:53:47;;;;;;;20.55;4.30;;;;;;;14.75;42.52;101184.53;4940528;28;20058;-81
2022/03/03 07:56:19;;;;;;;17.13;3.05;;;;;;;14.81;42.11;101180.44;4923691;28;20035;-81
2022/03/03 07:58:47;;;;;;;19.80;3.83;;;;;;;14.71;42.55;101183.56;4946300;28;20109;-81
2022/03/03 08:01:17;;;;;;;26.15;4.43;;;;;;;14.65;42.53;101201.38;4937687;29;20215;-81
2022/03/03 08:03:46;;;;;;;;;;;;;;;14.50;42.93;101204.66;4956767;29;20031;-81
2022/03/03 08:06:15;;;;;;;9.48;2.60;;;;;;;14.67;42.54;101199.13;4939082;29;19915;-80
2022/03/03 08:08:41;;;;;;;14.05;3.90;;;;;;;14.88;41.94;101188.97;4939132;29;20037;-80
2022/03/03 08:11:08;;;;;;;20.15;4.38;;;;;;;15.01;41.71;101191.84;4939116;29;20027;-82
2022/03/03 08:13:35;;;;;;;21.50;4.57;;;;;;;14.86;42.05;101205.00;4956162;29;20082;-83
2022/03/03 08:16:01;;;;;;;16.20;3.75;;;;;;;14.88;42.01;101213.72;4955575;29;20027;-79
2022/03/03 08:18:30;;;;;;;14.80;3.90;;;;;;;14.71;42.14;101208.31;4955691;29;20031;-81
2022/03/03 08:20:57;;;;;;;22.48;4.28;;;;;;;14.84;42.34;101212.00;4953845;29;20031;-80
2022/03/03 08:23:25;;;;;;;15.88;4.00;;;;;;;14.91;42.09;101215.84;4953569;29;20082;-81
2022/03/03 08:25:53;;;;;;;18.33;3.25;;;;;;;14.81;42.45;101216.22;4953170;29;20027;-80
2022/03/03 08:28:22;;;;;;;25.48;3.85;;;;;;;14.98;42.03;101216.13;4938117;29;20121;-79
2022/03/03 08:30:51;;;;;;;14.50;3.55;;;;;;;15.00;41.94;101224.06;4950908;29;20038;-79
2022/03/03 08:33:54;;;;;;;19.25;4.55;;;;;;;14.91;42.18;101229.59;4938178;29;20044;-80
2022/03/03 08:36:44;;;;;;;21.45;4.55;;;;;;;14.93;41.98;101227.31;4917671;29;20035;-80
2022/03/03 08:39:10;;;;;;;;;;;;;;;14.92;42.27;101227.66;4955957;29;20486;-81
2022/03/03 08:41:38;;;;;;;18.42;3.97;;;;;;;15.15;41.50;101230.94;4955068;28;19914;-80
2022/03/03 08:44:07;;;;;;;22.13;5.30;;;;;;;15.18;41.58;101222.00;4955616;29;20549;-80
2022/03/03 08:46:36;;;;;;;15.10;3.20;;;;;;;15.21;41.55;101224.91;4955649;29;20027;-80
2022/03/03 08:49:05;;;;;;;15.40;4.00;;;;;;;15.09;42.09;101224.00;4938292;29;20398;-80
2022/03/03 08:51:30;;;;;;;14.93;3.58;;;;;;;15.05;42.20;101223.06;4938385;29;20478;-80
2022/03/03 08:53:56;;;;;;;18.92;4.13;;;;;;;15.05;42.44;101232.13;4938056;29;20034;-80
2022/03/03 08:56:23;;;;;;;19.50;4.28;;;;;;;14.88;42.84;101233.00;4938180;29;20029;-80
2022/03/03 08:58:50;;;;;;;19.15;3.33;;;;;;;15.11;42.51;101240.97;4955411;29;20027;-80
2022/03/03 09:01:16;;;;;;;23.40;4.40;;;;;;;15.13;42.44;101247.00;4936477;29;20070;-80
2022/03/03 09:03:43;;;;;;;10.98;3.20;;;;;;;15.23;42.36;101247.41;4955167;29;20474;-80
2022/03/03 09:06:19;;;;;;;17.33;3.53;;;;;;;15.42;41.91;101266.28;4955357;29;20023;-80
2022/03/03 09:08:45;;;;;;;14.05;3.03;;;;;;;15.51;42.24;101274.47;4938127;29;20023;-81
2022/03/03 09:11:11;;;;;;;16.63;4.15;;;;;;;15.73;42.10;101276.16;4955100;29;20030;-80
2022/03/03 09:13:37;;;;;;;15.48;4.35;;;;;;;15.78;41.77;101268.47;4937490;29;20031;-81
2022/03/03 09:16:03;;;;;;;12.60;4.18;;;;;;;15.75;41.57;101282.13;4955220;29;20376;-80
2022/03/03 09:18:28;;;;;;;11.95;3.03;;;;;;;15.84;41.24;101282.88;4954910;29;20063;-80
2022/03/03 09:20:54;;;;;;;15.65;3.67;;;;;;;15.95;41.26;101277.78;4955116;29;20027;-80
2022/03/03 09:23:20;;;;;;;15.90;3.60;;;;;;;15.88;41.41;101275.56;4954755;29;20390;-79
2022/03/03 09:25:45;;;;;;;10.60;3.28;;;;;;;16.09;41.36;101279.09;4954344;29;20028;-81
2022/03/03 09:28:11;;;;;;;17.27;3.95;;;;;;;16.02;41.27;101280.78;4937803;29;20497;-80
2022/03/03 09:30:38;;;;;;;25.05;4.15;;;;;;;16.06;41.06;101279.78;4936123;29;20653;-80
2022/03/03 09:33:05;;;;;;;10.43;2.70;;;;;;;15.99;41.21;101278.69;4954935;29;20098;-80
2022/03/03 09:35:31;;;;;;;14.52;4.05;;;;;;;16.18;40.93;101281.00;4954726;29;20085;-80
2022/03/03 09:37:57;;;;;;;31.67;5.03;;;;;;;16.19;40.85;101283.41;4954375;29;20098;-80
2022/03/03 09:40:23;;;;;;;14.10;3.10;;;;;;;16.23;40.88;101289.03;4954923;29;20043;-81
2022/03/03 09:43:06;;;;;;;13.93;2.78;;;;;;;16.14;40.85;101291.88;4954679;29;20409;-80
2022/03/03 09:45:34;;;;;;;11.93;3.38;;;;;;;16.18;41.03;101303.06;4954748;29;20397;-80
2022/03/03 09:48:03;;;;;;;11.77;2.90;;;;;;;16.31;40.72;101307.47;4954667;29;20027;-81
2022/03/03 09:50:30;;;;;;;20.73;4.70;;;;;;;16.53;40.43;101312.59;4954590;29;20027;-81
2022/03/03 09:52:56;;;;;;;11.32;2.85;;;;;;;16.36;40.92;101310.03;4953668;28;20038;-80
2022/03/03 09:55:22;;;;;;;17.25;3.80;;;;;;;16.68;40.32;101315.88;4954503;29;20031;-80
2022/03/03 09:57:49;;;;;;;16.90;3.20;;;;;;;16.74;40.56;101312.59;4954265;29;20031;-79
2022/03/03 10:00:16;;;;;;;12.90;3.28;;;;;;;16.71;40.67;101318.00;4953379;29;20023;-80
2022/03/03 10:03:03;;;;;;;21.70;3.60;;;;;;;16.69;40.43;101315.56;4953880;29;20398;-79
2022/03/03 10:05:33;;;;;;;24.92;4.50;;;;;;;16.97;40.35;101326.81;4954475;29;20027;-80
2022/03/03 10:08:04;;;;;;;16.33;4.05;;;;;;;17.11;40.22;101332.81;4954368;29;20034;-79
2022/03/03 10:10:30;;;;;;;14.90;3.53;;;;;;;17.19;40.14;101340.19;4937255;29;20027;-80
2022/03/03 10:12:57;;;;;;;20.55;3.80;;;;;;;17.35;39.92;101342.28;4954297;29;20082;-79
2022/03/03 10:15:30;;;;;;;14.90;3.88;;;;;;;17.28;40.06;101328.22;4937048;29;20027;-81
2022/03/03 10:17:58;;;;;;;26.50;4.28;;;;;;;17.29;40.05;101346.41;4954199;29;20027;-80
2022/03/03 10:20:24;;;;;;;15.45;3.45;;;;;;;17.25;40.04;101332.50;4936865;29;20027;-80
2022/03/03 10:23:00;;;;;;;18.13;3.97;;;;;;;17.46;39.55;101329.63;4954330;29;20027;-80
2022/03/03 10:25:41;;;;;;;15.50;3.80;;;;;;;17.44;39.29;101334.69;4954168;29;20019;-80
2022/03/03 10:28:13;;;;;;;16.92;3.75;;;;;;;17.47;39.33;101339.53;4936979;29;20030;-79
2022/03/03 10:31:00;;;;;;;11.15;3.35;;;;;;;17.55;39.33;101357.13;4935391;29;20027;-80
2022/03/03 10:33:31;;;;;;;20.98;4.13;;;;;;;17.75;38.93;101348.72;4936844;29;20027;-80
2022/03/03 10:36:03;;;;;;;12.10;3.63;;;;;;;17.86;38.72;101353.81;4936785;29;20031;-81
2022/03/03 10:38:29;;;;;;;20.52;4.38;;;;;;;17.78;38.83;101361.06;4953888;29;20047;-81
2022/03/03 10:40:56;;;;;;;23.33;4.90;;;;;;;17.95;38.71;101355.28;4936902;29;20093;-81
2022/03/03 10:43:21;;;;;;;17.02;4.05;;;;;;;18.07;38.30;101360.00;4953809;29;20485;-80
2022/03/03 10:46:01;;;;;;;16.10;3.35;;;;;;;18.01;38.30;101362.19;4936690;29;20174;-80
2022/03/03 10:48:28;;;;;;;35.83;4.85;;;;;;;18.20;37.94;101358.81;4954117;29;20023;-80
2022/03/03 10:50:55;;;;;;;24.52;4.72;;;;;;;18.27;37.79;101353.47;4953836;29;20027;-80
2022/03/03 10:53:23;;;;;;;18.13;3.58;;;;;;;18.40;37.85;101367.28;4936687;29;20390;-81
2022/03/03 10:56:09;;;;;;;15.90;2.63;;;;;;;18.14;37.68;101360.22;4953846;29;20036;-80
2022/03/03 10:58:57;;;;;;;29.88;5.70;;;;;;;18.37;37.85;101371.56;4954023;29;20023;-80
2022/03/03 11:01:28;;;;;;;31.90;6.47;;;;;;;18.42;37.51;101378.81;4952670;29;20425;-79
2022/03/03 11:03:55;;;;;;;17.20;4.88;;;;;;;18.56;37.54;101382.78;4937443;29;20031;-80
2022/03/03 11:06:28;;;;;;;11.45;3.72;;;;;;;18.61;37.07;101381.75;4942787;28;20027;-80
2022/03/03 11:08:55;;;;;;;28.17;6.95;;;;;;;18.68;37.39;101387.53;4962680;28;20425;-80
2022/03/03 11:11:23;;;;;;;23.63;4.85;;;;;;;18.77;37.30;101384.59;4967446;28;20038;-80
2022/03/03 11:13:50;;;;;;;20.08;4.75;;;;;;;18.79;37.13;101388.63;4963945;28;20062;-80
2022/03/03 11:16:18;;;;;;;25.27;5.95;;;;;;;18.90;36.92;101388.13;4957250;29;20428;-79
2022/03/03 11:18:45;;;;;;;12.30;2.72;;;;;;;18.59;37.12;101389.59;4957084;29;20058;-80
2022/03/03 11:21:12;;;;;;;33.30;6.57;;;;;;;18.76;36.66;101381.03;4956338;29;20058;-83